sensor_id;sensor_type;location;lat;lon;timestamp;P1;durP1;ratioP1;P2;durP2;ratioP2
74626;SDS011;63132;52.268;5.192;2023-08-17T00:01:59;5.90;;;2.60;;
74626;SDS011;63132;52.268;5.192;2023-08-17T00:04:25;9.25;;;2.70;;
74626;SDS011;63132;52.268;5.192;2023-08-17T00:06:50;9.93;;;2.88;;
74626;SDS011;63132;52.268;5.192;2023-08-17T00:09:16;11.48;;;2.83;;
74626;SDS011;63132;52.268;5.192;2023-08-17T00:11:41;10.63;;;2.72;;
74626;SDS011;63132;52.268;5.192;2023-08-17T00:14:07;8.43;;;2.55;;
74626;SDS011;63132;52.268;5.192;2023-08-17T00:16:32;11.57;;;2.20;;
74626;SDS011;63132;52.268;5.192;2023-08-17T00:18:57;6.57;;;2.20;;
74626;SDS011;63132;52.268;5.192;2023-08-17T00:21:23;10.68;;;2.70;;
74626;SDS011;63132;52.268;5.192;2023-08-17T00:23:49;9.50;;;2.55;;
74626;SDS011;63132;52.268;5.192;2023-08-17T00:26:14;8.10;;;2.30;;
74626;SDS011;63132;52.268;5.192;2023-08-17T00:28:40;13.55;;;3.42;;
74626;SDS011;63132;52.268;5.192;2023-08-17T00:31:05;7.60;;;2.25;;
74626;SDS011;63132;52.268;5.192;2023-08-17T00:33:31;6.47;;;2.40;;
74626;SDS011;63132;52.268;5.192;2023-08-17T00:35:56;7.50;;;2.65;;
74626;SDS011;63132;52.268;5.192;2023-08-17T00:38:22;9.00;;;2.70;;
74626;SDS011;63132;52.268;5.192;2023-08-17T00:40:47;8.90;;;2.17;;
74626;SDS011;63132;52.268;5.192;2023-08-17T00:43:13;7.78;;;2.75;;
74626;SDS011;63132;52.268;5.192;2023-08-17T00:45:38;7.18;;;2.55;;
74626;SDS011;63132;52.268;5.192;2023-08-17T00:48:04;5.75;;;2.30;;
74626;SDS011;63132;52.268;5.192;2023-08-17T00:50:32;7.35;;;2.45;;
74626;SDS011;63132;52.268;5.192;2023-08-17T00:52:59;10.57;;;2.70;;
74626;SDS011;63132;52.268;5.192;2023-08-17T00:55:25;7.72;;;2.88;;
74626;SDS011;63132;52.268;5.192;2023-08-17T00:57:51;6.93;;;2.47;;
74626;SDS011;63132;52.268;5.192;2023-08-17T01:00:18;10.57;;;2.78;;
74626;SDS011;63132;52.268;5.192;2023-08-17T01:02:45;11.55;;;3.50;;
74626;SDS011;63132;52.268;5.192;2023-08-17T01:05:12;6.45;;;2.95;;
74626;SDS011;63132;52.268;5.192;2023-08-17T01:07:37;6.85;;;2.63;;
74626;SDS011;63132;52.268;5.192;2023-08-17T01:10:03;9.10;;;3.42;;
74626;SDS011;63132;52.268;5.192;2023-08-17T01:12:31;7.10;;;3.10;;
74626;SDS011;63132;52.268;5.192;2023-08-17T01:15:06;7.32;;;3.28;;
74626;SDS011;63132;52.268;5.192;2023-08-17T01:17:49;11.38;;;3.65;;
74626;SDS011;63132;52.268;5.192;2023-08-17T01:20:21;8.80;;;3.10;;
74626;SDS011;63132;52.268;5.192;2023-08-17T01:22:48;11.00;;;3.45;;
74626;SDS011;63132;52.268;5.192;2023-08-17T01:25:15;9.90;;;3.08;;
74626;SDS011;63132;52.268;5.192;2023-08-17T01:27:43;9.38;;;3.25;;
74626;SDS011;63132;52.268;5.192;2023-08-17T01:30:14;7.60;;;3.35;;
74626;SDS011;63132;52.268;5.192;2023-08-17T01:35:21;7.32;;;3.30;;
74626;SDS011;63132;52.268;5.192;2023-08-17T01:37:54;7.85;;;3.22;;
74626;SDS011;63132;52.268;5.192;2023-08-17T01:40:23;8.60;;;3.70;;
74626;SDS011;63132;52.268;5.192;2023-08-17T01:42:51;7.57;;;2.95;;
74626;SDS011;63132;52.268;5.192;2023-08-17T01:45:17;9.80;;;3.47;;
74626;SDS011;63132;52.268;5.192;2023-08-17T01:47:43;9.15;;;3.40;;
74626;SDS011;63132;52.268;5.192;2023-08-17T01:50:08;11.73;;;2.90;;
74626;SDS011;63132;52.268;5.192;2023-08-17T01:52:34;7.53;;;3.13;;
74626;SDS011;63132;52.268;5.192;2023-08-17T01:55:00;7.78;;;3.80;;
74626;SDS011;63132;52.268;5.192;2023-08-17T01:57:25;8.48;;;3.35;;
74626;SDS011;63132;52.268;5.192;2023-08-17T01:59:51;8.70;;;3.10;;
74626;SDS011;63132;52.268;5.192;2023-08-17T02:02:16;9.85;;;3.17;;
74626;SDS011;63132;52.268;5.192;2023-08-17T02:04:42;8.73;;;3.22;;
74626;SDS011;63132;52.268;5.192;2023-08-17T02:07:07;12.60;;;3.40;;
74626;SDS011;63132;52.268;5.192;2023-08-17T02:09:33;10.07;;;3.45;;
74626;SDS011;63132;52.268;5.192;2023-08-17T02:11:58;8.15;;;3.55;;
74626;SDS011;63132;52.268;5.192;2023-08-17T02:14:23;10.23;;;3.58;;
74626;SDS011;63132;52.268;5.192;2023-08-17T02:16:48;11.60;;;4.40;;
74626;SDS011;63132;52.268;5.192;2023-08-17T02:19:14;9.23;;;3.58;;
74626;SDS011;63132;52.268;5.192;2023-08-17T02:21:39;9.30;;;4.30;;
74626;SDS011;63132;52.268;5.192;2023-08-17T02:26:30;11.25;;;3.92;;
74626;SDS011;63132;52.268;5.192;2023-08-17T02:28:55;8.75;;;4.07;;
74626;SDS011;63132;52.268;5.192;2023-08-17T02:31:21;9.60;;;4.13;;
74626;SDS011;63132;52.268;5.192;2023-08-17T02:33:46;14.13;;;4.80;;
74626;SDS011;63132;52.268;5.192;2023-08-17T02:36:12;14.52;;;4.43;;
74626;SDS011;63132;52.268;5.192;2023-08-17T02:38:37;14.10;;;4.50;;
74626;SDS011;63132;52.268;5.192;2023-08-17T02:43:28;10.95;;;4.28;;
74626;SDS011;63132;52.268;5.192;2023-08-17T02:48:19;9.00;;;3.83;;
74626;SDS011;63132;52.268;5.192;2023-08-17T02:50:44;10.05;;;4.00;;
74626;SDS011;63132;52.268;5.192;2023-08-17T02:53:09;8.38;;;3.70;;
74626;SDS011;63132;52.268;5.192;2023-08-17T02:55:35;10.00;;;4.43;;
74626;SDS011;63132;52.268;5.192;2023-08-17T02:58:00;6.60;;;3.60;;
74626;SDS011;63132;52.268;5.192;2023-08-17T03:00:26;9.57;;;4.15;;
74626;SDS011;63132;52.268;5.192;2023-08-17T03:05:17;15.00;;;4.03;;
74626;SDS011;63132;52.268;5.192;2023-08-17T03:10:08;16.65;;;4.13;;
74626;SDS011;63132;52.268;5.192;2023-08-17T03:14:59;10.07;;;3.13;;
74626;SDS011;63132;52.268;5.192;2023-08-17T03:17:24;9.25;;;3.70;;
74626;SDS011;63132;52.268;5.192;2023-08-17T03:19:50;11.05;;;3.40;;
74626;SDS011;63132;52.268;5.192;2023-08-17T03:24:40;7.30;;;3.20;;
74626;SDS011;63132;52.268;5.192;2023-08-17T03:29:31;13.23;;;3.85;;
74626;SDS011;63132;52.268;5.192;2023-08-17T03:34:22;12.60;;;3.37;;
74626;SDS011;63132;52.268;5.192;2023-08-17T03:39:12;11.18;;;3.53;;
74626;SDS011;63132;52.268;5.192;2023-08-17T03:41:37;7.28;;;3.05;;
74626;SDS011;63132;52.268;5.192;2023-08-17T03:44:03;7.57;;;3.28;;
74626;SDS011;63132;52.268;5.192;2023-08-17T03:46:30;9.45;;;3.03;;
74626;SDS011;63132;52.268;5.192;2023-08-17T03:48:56;15.60;;;3.72;;
74626;SDS011;63132;52.268;5.192;2023-08-17T03:51:21;9.35;;;3.30;;
74626;SDS011;63132;52.268;5.192;2023-08-17T03:53:47;13.75;;;3.53;;
74626;SDS011;63132;52.268;5.192;2023-08-17T03:58:37;9.90;;;3.30;;
74626;SDS011;63132;52.268;5.192;2023-08-17T04:01:02;9.95;;;3.20;;
74626;SDS011;63132;52.268;5.192;2023-08-17T04:03:30;9.40;;;2.63;;
74626;SDS011;63132;52.268;5.192;2023-08-17T04:05:56;10.55;;;2.70;;
74626;SDS011;63132;52.268;5.192;2023-08-17T04:08:21;9.20;;;3.25;;
74626;SDS011;63132;52.268;5.192;2023-08-17T04:10:47;6.88;;;2.47;;
74626;SDS011;63132;52.268;5.192;2023-08-17T04:15:37;10.60;;;2.60;;
74626;SDS011;63132;52.268;5.192;2023-08-17T04:18:02;8.13;;;2.95;;
74626;SDS011;63132;52.268;5.192;2023-08-17T04:20:28;9.25;;;2.53;;
74626;SDS011;63132;52.268;5.192;2023-08-17T04:25:19;4.70;;;1.98;;
74626;SDS011;63132;52.268;5.192;2023-08-17T04:30:09;8.93;;;2.47;;
74626;SDS011;63132;52.268;5.192;2023-08-17T04:32:35;9.35;;;2.65;;
74626;SDS011;63132;52.268;5.192;2023-08-17T04:35:01;8.88;;;2.65;;
74626;SDS011;63132;52.268;5.192;2023-08-17T04:37:26;9.63;;;2.50;;
74626;SDS011;63132;52.268;5.192;2023-08-17T04:39:52;8.45;;;2.38;;
74626;SDS011;63132;52.268;5.192;2023-08-17T04:42:17;6.35;;;2.50;;
74626;SDS011;63132;52.268;5.192;2023-08-17T04:44:44;5.35;;;2.35;;
74626;SDS011;63132;52.268;5.192;2023-08-17T04:47:10;9.88;;;3.25;;
74626;SDS011;63132;52.268;5.192;2023-08-17T04:49:35;7.60;;;2.53;;
74626;SDS011;63132;52.268;5.192;2023-08-17T04:52:01;7.38;;;2.50;;
74626;SDS011;63132;52.268;5.192;2023-08-17T04:54:26;9.25;;;2.78;;
74626;SDS011;63132;52.268;5.192;2023-08-17T04:56:51;10.70;;;2.97;;
74626;SDS011;63132;52.268;5.192;2023-08-17T04:59:17;15.98;;;2.80;;
74626;SDS011;63132;52.268;5.192;2023-08-17T05:01:42;6.13;;;2.55;;
74626;SDS011;63132;52.268;5.192;2023-08-17T05:04:07;5.90;;;2.22;;
74626;SDS011;63132;52.268;5.192;2023-08-17T05:06:33;7.95;;;2.25;;
74626;SDS011;63132;52.268;5.192;2023-08-17T05:08:58;8.68;;;2.60;;
74626;SDS011;63132;52.268;5.192;2023-08-17T05:11:23;8.63;;;2.40;;
74626;SDS011;63132;52.268;5.192;2023-08-17T05:13:49;10.63;;;2.80;;
74626;SDS011;63132;52.268;5.192;2023-08-17T05:16:14;16.58;;;3.13;;
74626;SDS011;63132;52.268;5.192;2023-08-17T05:18:39;12.77;;;2.70;;
74626;SDS011;63132;52.268;5.192;2023-08-17T05:21:05;11.27;;;3.75;;
74626;SDS011;63132;52.268;5.192;2023-08-17T05:23:31;8.88;;;2.88;;
74626;SDS011;63132;52.268;5.192;2023-08-17T05:25:57;9.00;;;2.75;;
74626;SDS011;63132;52.268;5.192;2023-08-17T05:28:22;7.85;;;2.50;;
74626;SDS011;63132;52.268;5.192;2023-08-17T05:30:48;6.57;;;2.78;;
74626;SDS011;63132;52.268;5.192;2023-08-17T05:33:13;6.95;;;2.72;;
74626;SDS011;63132;52.268;5.192;2023-08-17T05:35:39;8.45;;;2.75;;
74626;SDS011;63132;52.268;5.192;2023-08-17T05:38:04;6.07;;;2.75;;
74626;SDS011;63132;52.268;5.192;2023-08-17T05:40:30;6.57;;;2.60;;
74626;SDS011;63132;52.268;5.192;2023-08-17T05:42:56;12.02;;;2.53;;
74626;SDS011;63132;52.268;5.192;2023-08-17T05:45:21;10.40;;;2.85;;
74626;SDS011;63132;52.268;5.192;2023-08-17T05:47:47;8.63;;;2.78;;
74626;SDS011;63132;52.268;5.192;2023-08-17T05:50:12;7.57;;;2.72;;
74626;SDS011;63132;52.268;5.192;2023-08-17T05:52:38;9.20;;;3.03;;
74626;SDS011;63132;52.268;5.192;2023-08-17T05:55:03;10.35;;;2.70;;
74626;SDS011;63132;52.268;5.192;2023-08-17T05:57:28;9.40;;;3.30;;
74626;SDS011;63132;52.268;5.192;2023-08-17T05:59:54;9.63;;;3.33;;
74626;SDS011;63132;52.268;5.192;2023-08-17T06:02:19;6.88;;;2.95;;
74626;SDS011;63132;52.268;5.192;2023-08-17T06:04:44;12.13;;;3.42;;
74626;SDS011;63132;52.268;5.192;2023-08-17T06:07:12;9.02;;;3.25;;
74626;SDS011;63132;52.268;5.192;2023-08-17T06:09:38;10.10;;;3.30;;
74626;SDS011;63132;52.268;5.192;2023-08-17T06:12:03;9.15;;;3.35;;
74626;SDS011;63132;52.268;5.192;2023-08-17T06:14:29;10.15;;;3.20;;
74626;SDS011;63132;52.268;5.192;2023-08-17T06:16:54;12.57;;;3.60;;
74626;SDS011;63132;52.268;5.192;2023-08-17T06:19:19;14.13;;;3.78;;
74626;SDS011;63132;52.268;5.192;2023-08-17T06:21:45;10.57;;;3.38;;
74626;SDS011;63132;52.268;5.192;2023-08-17T06:24:10;8.32;;;3.65;;
74626;SDS011;63132;52.268;5.192;2023-08-17T06:26:35;9.93;;;3.67;;
74626;SDS011;63132;52.268;5.192;2023-08-17T06:29:01;11.75;;;3.20;;
74626;SDS011;63132;52.268;5.192;2023-08-17T06:31:26;9.75;;;3.25;;
74626;SDS011;63132;52.268;5.192;2023-08-17T06:33:53;7.57;;;3.38;;
74626;SDS011;63132;52.268;5.192;2023-08-17T06:36:19;10.55;;;3.10;;
74626;SDS011;63132;52.268;5.192;2023-08-17T06:38:44;8.90;;;2.67;;
74626;SDS011;63132;52.268;5.192;2023-08-17T06:41:10;17.10;;;3.38;;
74626;SDS011;63132;52.268;5.192;2023-08-17T06:43:35;12.38;;;3.42;;
74626;SDS011;63132;52.268;5.192;2023-08-17T06:46:01;12.35;;;2.55;;
74626;SDS011;63132;52.268;5.192;2023-08-17T06:48:27;8.73;;;3.10;;
74626;SDS011;63132;52.268;5.192;2023-08-17T06:50:52;8.95;;;2.67;;
74626;SDS011;63132;52.268;5.192;2023-08-17T06:53:18;9.40;;;2.83;;
74626;SDS011;63132;52.268;5.192;2023-08-17T06:55:43;9.77;;;2.90;;
74626;SDS011;63132;52.268;5.192;2023-08-17T06:58:09;9.07;;;2.95;;
74626;SDS011;63132;52.268;5.192;2023-08-17T07:00:34;7.13;;;3.30;;
74626;SDS011;63132;52.268;5.192;2023-08-17T07:03:00;9.32;;;2.72;;
74626;SDS011;63132;52.268;5.192;2023-08-17T07:05:26;9.07;;;2.65;;
74626;SDS011;63132;52.268;5.192;2023-08-17T07:07:51;11.77;;;3.65;;
74626;SDS011;63132;52.268;5.192;2023-08-17T07:10:18;18.73;;;3.40;;
74626;SDS011;63132;52.268;5.192;2023-08-17T07:12:44;8.27;;;2.45;;
74626;SDS011;63132;52.268;5.192;2023-08-17T07:15:10;8.15;;;2.35;;
74626;SDS011;63132;52.268;5.192;2023-08-17T07:17:36;7.15;;;2.53;;
74626;SDS011;63132;52.268;5.192;2023-08-17T07:20:04;11.02;;;2.83;;
74626;SDS011;63132;52.268;5.192;2023-08-17T07:22:32;11.13;;;2.58;;
74626;SDS011;63132;52.268;5.192;2023-08-17T07:24:58;6.85;;;2.95;;
74626;SDS011;63132;52.268;5.192;2023-08-17T07:27:23;6.78;;;2.63;;
74626;SDS011;63132;52.268;5.192;2023-08-17T07:29:48;13.07;;;3.22;;
74626;SDS011;63132;52.268;5.192;2023-08-17T07:32:14;10.02;;;2.83;;
74626;SDS011;63132;52.268;5.192;2023-08-17T07:34:39;11.25;;;2.80;;
74626;SDS011;63132;52.268;5.192;2023-08-17T07:37:04;11.32;;;2.47;;
74626;SDS011;63132;52.268;5.192;2023-08-17T07:39:31;11.65;;;3.00;;
74626;SDS011;63132;52.268;5.192;2023-08-17T07:41:56;10.38;;;3.10;;
74626;SDS011;63132;52.268;5.192;2023-08-17T07:44:21;5.20;;;2.25;;
74626;SDS011;63132;52.268;5.192;2023-08-17T07:46:47;8.85;;;2.63;;
74626;SDS011;63132;52.268;5.192;2023-08-17T07:49:12;8.27;;;2.58;;
74626;SDS011;63132;52.268;5.192;2023-08-17T07:51:38;10.18;;;2.50;;
74626;SDS011;63132;52.268;5.192;2023-08-17T07:54:03;7.53;;;2.72;;
74626;SDS011;63132;52.268;5.192;2023-08-17T07:56:29;13.20;;;2.55;;
74626;SDS011;63132;52.268;5.192;2023-08-17T07:58:54;8.82;;;2.60;;
74626;SDS011;63132;52.268;5.192;2023-08-17T08:01:20;10.23;;;2.40;;
74626;SDS011;63132;52.268;5.192;2023-08-17T08:03:45;16.27;;;3.03;;
74626;SDS011;63132;52.268;5.192;2023-08-17T08:06:11;9.85;;;2.58;;
74626;SDS011;63132;52.268;5.192;2023-08-17T08:08:37;8.52;;;2.50;;
74626;SDS011;63132;52.268;5.192;2023-08-17T08:11:03;9.02;;;2.55;;
74626;SDS011;63132;52.268;5.192;2023-08-17T08:13:29;7.18;;;2.00;;
74626;SDS011;63132;52.268;5.192;2023-08-17T08:15:55;10.38;;;2.50;;
74626;SDS011;63132;52.268;5.192;2023-08-17T08:18:20;9.90;;;2.20;;
74626;SDS011;63132;52.268;5.192;2023-08-17T08:20:46;8.48;;;2.42;;
74626;SDS011;63132;52.268;5.192;2023-08-17T08:23:13;8.38;;;2.28;;
74626;SDS011;63132;52.268;5.192;2023-08-17T08:25:38;9.15;;;2.40;;
74626;SDS011;63132;52.268;5.192;2023-08-17T08:28:04;6.82;;;2.53;;
74626;SDS011;63132;52.268;5.192;2023-08-17T08:30:29;8.45;;;2.58;;
74626;SDS011;63132;52.268;5.192;2023-08-17T08:32:55;5.55;;;2.42;;
74626;SDS011;63132;52.268;5.192;2023-08-17T08:35:22;11.93;;;2.80;;
74626;SDS011;63132;52.268;5.192;2023-08-17T08:37:49;11.38;;;3.22;;
74626;SDS011;63132;52.268;5.192;2023-08-17T08:40:14;5.85;;;2.20;;
74626;SDS011;63132;52.268;5.192;2023-08-17T08:42:42;7.45;;;3.00;;
74626;SDS011;63132;52.268;5.192;2023-08-17T08:45:09;8.52;;;2.70;;
74626;SDS011;63132;52.268;5.192;2023-08-17T08:47:36;9.82;;;3.13;;
74626;SDS011;63132;52.268;5.192;2023-08-17T08:50:03;8.63;;;3.47;;
74626;SDS011;63132;52.268;5.192;2023-08-17T08:52:38;8.77;;;2.40;;
74626;SDS011;63132;52.268;5.192;2023-08-17T08:55:19;8.40;;;2.78;;
74626;SDS011;63132;52.268;5.192;2023-08-17T08:57:48;6.45;;;2.72;;
74626;SDS011;63132;52.268;5.192;2023-08-17T09:00:14;5.75;;;2.70;;
74626;SDS011;63132;52.268;5.192;2023-08-17T09:02:40;9.55;;;2.83;;
74626;SDS011;63132;52.268;5.192;2023-08-17T09:05:08;7.57;;;2.80;;
74626;SDS011;63132;52.268;5.192;2023-08-17T09:07:35;7.45;;;3.00;;
74626;SDS011;63132;52.268;5.192;2023-08-17T09:10:02;6.93;;;2.40;;
74626;SDS011;63132;52.268;5.192;2023-08-17T09:12:28;4.97;;;2.00;;
74626;SDS011;63132;52.268;5.192;2023-08-17T09:14:54;11.50;;;2.75;;
74626;SDS011;63132;52.268;5.192;2023-08-17T09:17:22;10.90;;;2.97;;
74626;SDS011;63132;52.268;5.192;2023-08-17T09:19:49;9.27;;;2.65;;
74626;SDS011;63132;52.268;5.192;2023-08-17T09:22:18;9.60;;;2.60;;
74626;SDS011;63132;52.268;5.192;2023-08-17T09:24:47;13.45;;;2.45;;
74626;SDS011;63132;52.268;5.192;2023-08-17T09:27:13;10.25;;;2.92;;
74626;SDS011;63132;52.268;5.192;2023-08-17T09:29:40;14.30;;;2.83;;
74626;SDS011;63132;52.268;5.192;2023-08-17T09:32:11;12.23;;;2.60;;
74626;SDS011;63132;52.268;5.192;2023-08-17T09:34:41;5.93;;;2.30;;
74626;SDS011;63132;52.268;5.192;2023-08-17T09:37:07;6.72;;;2.20;;
74626;SDS011;63132;52.268;5.192;2023-08-17T09:39:32;8.48;;;2.42;;
74626;SDS011;63132;52.268;5.192;2023-08-17T09:41:58;5.13;;;2.38;;
74626;SDS011;63132;52.268;5.192;2023-08-17T09:44:24;8.57;;;2.35;;
74626;SDS011;63132;52.268;5.192;2023-08-17T09:46:49;9.95;;;2.65;;
74626;SDS011;63132;52.268;5.192;2023-08-17T09:49:17;5.13;;;1.98;;
74626;SDS011;63132;52.268;5.192;2023-08-17T09:51:43;5.93;;;2.20;;
74626;SDS011;63132;52.268;5.192;2023-08-17T09:54:14;7.70;;;2.38;;
74626;SDS011;63132;52.268;5.192;2023-08-17T09:56:46;9.15;;;1.85;;
74626;SDS011;63132;52.268;5.192;2023-08-17T09:59:12;8.35;;;2.15;;
74626;SDS011;63132;52.268;5.192;2023-08-17T10:01:37;6.70;;;1.73;;
74626;SDS011;63132;52.268;5.192;2023-08-17T10:04:03;11.13;;;2.38;;
74626;SDS011;63132;52.268;5.192;2023-08-17T10:06:30;7.45;;;2.05;;
74626;SDS011;63132;52.268;5.192;2023-08-17T10:08:59;6.47;;;2.03;;
74626;SDS011;63132;52.268;5.192;2023-08-17T10:11:25;10.07;;;1.92;;
74626;SDS011;63132;52.268;5.192;2023-08-17T10:13:52;6.63;;;2.30;;
74626;SDS011;63132;52.268;5.192;2023-08-17T10:16:23;10.73;;;2.03;;
74626;SDS011;63132;52.268;5.192;2023-08-17T10:21:28;8.68;;;2.55;;
74626;SDS011;63132;52.268;5.192;2023-08-17T10:23:56;6.55;;;2.35;;
74626;SDS011;63132;52.268;5.192;2023-08-17T10:26:22;5.20;;;1.80;;
74626;SDS011;63132;52.268;5.192;2023-08-17T10:28:48;9.55;;;2.33;;
74626;SDS011;63132;52.268;5.192;2023-08-17T10:31:16;7.53;;;2.20;;
74626;SDS011;63132;52.268;5.192;2023-08-17T10:33:41;6.55;;;2.05;;
74626;SDS011;63132;52.268;5.192;2023-08-17T10:36:09;8.18;;;2.50;;
74626;SDS011;63132;52.268;5.192;2023-08-17T10:38:36;8.82;;;2.72;;
74626;SDS011;63132;52.268;5.192;2023-08-17T10:41:45;6.85;;;2.00;;
74626;SDS011;63132;52.268;5.192;2023-08-17T10:43:56;8.80;;;2.40;;
74626;SDS011;63132;52.268;5.192;2023-08-17T10:46:32;5.68;;;1.92;;
74626;SDS011;63132;52.268;5.192;2023-08-17T10:49:04;8.75;;;3.20;;
74626;SDS011;63132;52.268;5.192;2023-08-17T10:51:31;10.35;;;3.58;;
74626;SDS011;63132;52.268;5.192;2023-08-17T10:53:58;8.07;;;3.03;;
74626;SDS011;63132;52.268;5.192;2023-08-17T10:56:29;10.60;;;3.50;;
74626;SDS011;63132;52.268;5.192;2023-08-17T10:58:58;6.05;;;2.63;;
74626;SDS011;63132;52.268;5.192;2023-08-17T11:01:32;6.65;;;2.83;;
74626;SDS011;63132;52.268;5.192;2023-08-17T11:04:09;5.85;;;2.58;;
74626;SDS011;63132;52.268;5.192;2023-08-17T11:06:42;8.85;;;2.50;;
74626;SDS011;63132;52.268;5.192;2023-08-17T11:09:08;10.27;;;3.42;;
74626;SDS011;63132;52.268;5.192;2023-08-17T11:11:34;11.65;;;3.65;;
74626;SDS011;63132;52.268;5.192;2023-08-17T11:13:59;7.68;;;3.53;;
74626;SDS011;63132;52.268;5.192;2023-08-17T11:16:25;13.80;;;3.40;;
74626;SDS011;63132;52.268;5.192;2023-08-17T11:18:51;8.27;;;3.40;;
74626;SDS011;63132;52.268;5.192;2023-08-17T11:21:16;10.60;;;2.70;;
74626;SDS011;63132;52.268;5.192;2023-08-17T11:23:43;10.10;;;3.22;;
74626;SDS011;63132;52.268;5.192;2023-08-17T11:26:08;6.85;;;3.13;;
74626;SDS011;63132;52.268;5.192;2023-08-17T11:28:34;11.38;;;3.33;;
74626;SDS011;63132;52.268;5.192;2023-08-17T11:31:04;7.90;;;3.25;;
74626;SDS011;63132;52.268;5.192;2023-08-17T11:33:31;7.95;;;2.58;;
74626;SDS011;63132;52.268;5.192;2023-08-17T11:35:58;12.73;;;3.13;;
74626;SDS011;63132;52.268;5.192;2023-08-17T11:38:26;10.80;;;3.30;;
74626;SDS011;63132;52.268;5.192;2023-08-17T11:40:55;8.52;;;3.22;;
74626;SDS011;63132;52.268;5.192;2023-08-17T11:43:23;8.52;;;2.95;;
74626;SDS011;63132;52.268;5.192;2023-08-17T11:45:48;13.80;;;4.30;;
74626;SDS011;63132;52.268;5.192;2023-08-17T11:48:14;7.68;;;3.03;;
74626;SDS011;63132;52.268;5.192;2023-08-17T11:50:41;7.25;;;3.50;;
74626;SDS011;63132;52.268;5.192;2023-08-17T11:53:07;9.07;;;3.03;;
74626;SDS011;63132;52.268;5.192;2023-08-17T11:55:33;9.73;;;2.92;;
74626;SDS011;63132;52.268;5.192;2023-08-17T11:57:58;12.45;;;3.55;;
74626;SDS011;63132;52.268;5.192;2023-08-17T12:00:23;8.30;;;2.90;;
74626;SDS011;63132;52.268;5.192;2023-08-17T12:02:51;11.48;;;3.03;;
74626;SDS011;63132;52.268;5.192;2023-08-17T12:05:26;11.52;;;3.30;;
74626;SDS011;63132;52.268;5.192;2023-08-17T12:07:54;10.65;;;3.40;;
74626;SDS011;63132;52.268;5.192;2023-08-17T12:10:19;10.43;;;3.05;;
74626;SDS011;63132;52.268;5.192;2023-08-17T12:12:47;6.55;;;2.92;;
74626;SDS011;63132;52.268;5.192;2023-08-17T12:15:13;8.43;;;3.05;;
74626;SDS011;63132;52.268;5.192;2023-08-17T12:17:45;11.13;;;3.10;;
74626;SDS011;63132;52.268;5.192;2023-08-17T12:20:15;9.70;;;2.83;;
74626;SDS011;63132;52.268;5.192;2023-08-17T12:22:43;9.32;;;2.92;;
74626;SDS011;63132;52.268;5.192;2023-08-17T12:25:09;11.18;;;3.80;;
74626;SDS011;63132;52.268;5.192;2023-08-17T12:27:34;10.45;;;3.10;;
74626;SDS011;63132;52.268;5.192;2023-08-17T12:30:00;12.05;;;3.72;;
74626;SDS011;63132;52.268;5.192;2023-08-17T12:32:25;9.38;;;3.55;;
74626;SDS011;63132;52.268;5.192;2023-08-17T12:34:50;8.93;;;3.60;;
74626;SDS011;63132;52.268;5.192;2023-08-17T12:37:19;11.85;;;3.35;;
74626;SDS011;63132;52.268;5.192;2023-08-17T12:39:48;8.40;;;3.33;;
74626;SDS011;63132;52.268;5.192;2023-08-17T12:42:13;9.02;;;3.40;;
74626;SDS011;63132;52.268;5.192;2023-08-17T12:44:40;14.50;;;3.85;;
74626;SDS011;63132;52.268;5.192;2023-08-17T12:47:06;9.07;;;3.40;;
74626;SDS011;63132;52.268;5.192;2023-08-17T12:49:31;10.70;;;3.42;;
74626;SDS011;63132;52.268;5.192;2023-08-17T12:51:56;7.45;;;3.45;;
74626;SDS011;63132;52.268;5.192;2023-08-17T12:54:22;16.48;;;3.92;;
74626;SDS011;63132;52.268;5.192;2023-08-17T12:56:47;10.25;;;3.63;;
74626;SDS011;63132;52.268;5.192;2023-08-17T12:59:12;10.18;;;3.92;;
74626;SDS011;63132;52.268;5.192;2023-08-17T13:01:38;9.23;;;3.95;;
74626;SDS011;63132;52.268;5.192;2023-08-17T13:04:04;9.00;;;4.10;;
74626;SDS011;63132;52.268;5.192;2023-08-17T13:06:30;11.27;;;4.32;;
74626;SDS011;63132;52.268;5.192;2023-08-17T13:08:55;12.20;;;3.88;;
74626;SDS011;63132;52.268;5.192;2023-08-17T13:11:20;8.38;;;4.03;;
74626;SDS011;63132;52.268;5.192;2023-08-17T13:13:46;7.70;;;3.83;;
74626;SDS011;63132;52.268;5.192;2023-08-17T13:16:11;7.68;;;3.75;;
74626;SDS011;63132;52.268;5.192;2023-08-17T13:18:37;9.60;;;3.33;;
74626;SDS011;63132;52.268;5.192;2023-08-17T13:21:02;5.57;;;3.03;;
74626;SDS011;63132;52.268;5.192;2023-08-17T13:23:28;7.75;;;3.15;;
74626;SDS011;63132;52.268;5.192;2023-08-17T13:25:53;10.55;;;4.00;;
74626;SDS011;63132;52.268;5.192;2023-08-17T13:28:19;8.15;;;3.90;;
74626;SDS011;63132;52.268;5.192;2023-08-17T13:30:44;8.45;;;3.90;;
74626;SDS011;63132;52.268;5.192;2023-08-17T13:33:09;8.95;;;3.10;;
74626;SDS011;63132;52.268;5.192;2023-08-17T13:35:35;7.15;;;3.50;;
74626;SDS011;63132;52.268;5.192;2023-08-17T13:38:01;9.13;;;3.75;;
74626;SDS011;63132;52.268;5.192;2023-08-17T13:40:29;5.28;;;3.10;;
74626;SDS011;63132;52.268;5.192;2023-08-17T13:42:54;7.55;;;3.45;;
74626;SDS011;63132;52.268;5.192;2023-08-17T13:45:20;6.85;;;3.72;;
74626;SDS011;63132;52.268;5.192;2023-08-17T13:47:46;13.40;;;4.10;;
74626;SDS011;63132;52.268;5.192;2023-08-17T13:50:12;9.32;;;4.00;;
74626;SDS011;63132;52.268;5.192;2023-08-17T13:52:37;9.50;;;3.70;;
74626;SDS011;63132;52.268;5.192;2023-08-17T13:55:02;6.63;;;3.47;;
74626;SDS011;63132;52.268;5.192;2023-08-17T13:57:28;13.07;;;4.47;;
74626;SDS011;63132;52.268;5.192;2023-08-17T13:59:53;8.43;;;3.40;;
74626;SDS011;63132;52.268;5.192;2023-08-17T14:02:19;8.95;;;4.00;;
74626;SDS011;63132;52.268;5.192;2023-08-17T14:04:44;6.38;;;3.13;;
74626;SDS011;63132;52.268;5.192;2023-08-17T14:07:10;10.10;;;3.92;;
74626;SDS011;63132;52.268;5.192;2023-08-17T14:09:35;11.00;;;3.00;;
74626;SDS011;63132;52.268;5.192;2023-08-17T14:12:01;7.85;;;3.50;;
74626;SDS011;63132;52.268;5.192;2023-08-17T14:14:26;5.32;;;3.47;;
74626;SDS011;63132;52.268;5.192;2023-08-17T14:16:52;9.50;;;3.58;;
74626;SDS011;63132;52.268;5.192;2023-08-17T14:19:17;6.80;;;3.33;;
74626;SDS011;63132;52.268;5.192;2023-08-17T14:21:42;11.48;;;3.47;;
74626;SDS011;63132;52.268;5.192;2023-08-17T14:24:08;10.25;;;3.22;;
74626;SDS011;63132;52.268;5.192;2023-08-17T14:26:33;7.07;;;3.20;;
74626;SDS011;63132;52.268;5.192;2023-08-17T14:28:59;10.18;;;3.60;;
74626;SDS011;63132;52.268;5.192;2023-08-17T14:31:24;10.93;;;3.70;;
74626;SDS011;63132;52.268;5.192;2023-08-17T14:33:50;6.90;;;3.03;;
74626;SDS011;63132;52.268;5.192;2023-08-17T14:36:15;9.75;;;3.42;;
74626;SDS011;63132;52.268;5.192;2023-08-17T14:38:42;5.97;;;3.33;;
74626;SDS011;63132;52.268;5.192;2023-08-17T14:41:07;7.82;;;3.53;;
74626;SDS011;63132;52.268;5.192;2023-08-17T14:43:33;9.50;;;3.92;;
74626;SDS011;63132;52.268;5.192;2023-08-17T14:45:58;7.97;;;3.67;;
74626;SDS011;63132;52.268;5.192;2023-08-17T14:48:24;8.63;;;3.83;;
74626;SDS011;63132;52.268;5.192;2023-08-17T14:50:49;10.27;;;4.32;;
74626;SDS011;63132;52.268;5.192;2023-08-17T14:53:15;11.50;;;4.28;;
74626;SDS011;63132;52.268;5.192;2023-08-17T14:55:41;9.48;;;4.45;;
74626;SDS011;63132;52.268;5.192;2023-08-17T14:58:06;7.78;;;3.95;;
74626;SDS011;63132;52.268;5.192;2023-08-17T15:00:32;10.95;;;4.53;;
74626;SDS011;63132;52.268;5.192;2023-08-17T15:02:57;10.00;;;4.65;;
74626;SDS011;63132;52.268;5.192;2023-08-17T15:05:23;6.30;;;3.80;;
74626;SDS011;63132;52.268;5.192;2023-08-17T15:07:48;11.52;;;4.30;;
74626;SDS011;63132;52.268;5.192;2023-08-17T15:10:14;8.40;;;4.50;;
74626;SDS011;63132;52.268;5.192;2023-08-17T15:12:39;10.15;;;4.20;;
74626;SDS011;63132;52.268;5.192;2023-08-17T15:15:05;11.60;;;4.75;;
74626;SDS011;63132;52.268;5.192;2023-08-17T15:17:31;12.95;;;4.90;;